Create Custom Reports and Graphics: Custom Report

North/Central Map

Map

15 Minute Data

South County Map

Map

15 Minute Data

Northern Sonoma County Latest

23 Stations

15 Minute Data | America/Los_Angeles
as of 4/18/24 6:43 PM PDT
Station Date Time Temp (°F) RH (%) Dew Pt (°F) Wind Spd (mph) Wind Dir (°) Wind Gust (mph) Latest Rain (In) Daily Rain (In) Daily Min Temp (°F) Daily Max Temp (°F)
Rockpile Lower (Cooley) 4/18/24 1815 70.6   3.1 44   27 47.8   20.8 7.3   1.4 W | 262 13.8   4.6 0.00 0.00 55.1   6.2 79.7   2.1
Rockpile Upper (Cooley) 4/18/24 1830 66.2   2.0 51   27 47.5   17.2 6.0   2.9 WNW | 294 11.4   2.2 0.00 0.00 57.0   12.3 74.6   1.1
Cloverdale-East (Ranch 83) 4/18/24 1830 77.7   0.3 - - 7.3   0.1 WSW | 251 13.5   1.4 0.00 0.00 50.3   0.1 83.3   0.1
Cloverdale-SE (Ranch 38) 4/18/24 1830 74.9   0.1 45   3 52.2   1.4 4.5   6.0 SW | 219 10.7   3.3 0.00 0.00 49.6   0.9 82.5   1.6
Geyserville-North (Hoffman) 4/18/24 1830 77.3   1.6 40   4 50.8   1.2 3.4   2.1 W | 274 7.2   1.5 0.00 0.00 45.3   3.5 80.9   0.7
Geyserville (Ranch 3) 4/18/24 1830 78.1   1.9 36   4 49.2   1.1 3.2   2.1 W | 273 7.0   3.2 0.00 0.00 47.9   1.1 81.0   0.9
Geyserville-East (Ranch 40) 4/18/24 1830 72.2   0.6 49   1 52.3   0.1 10.2   2.2 SSE | 167 14.7   1.5 0.00 0.02 50.0   1.5 82.5   2.4
Geyserville-South (Nervo Station) 4/18/24 1830 74.1   0.7 - - 3.3   0.2 SSE | 153 8.4   0.7 0.00 0.00 47.3   0.7 79.6   0.9
Whitton Ranch (201e) 4/18/24 1830 74.6   1.9 47   5 53.2   1.6 4.4   0.4 SSE | 156 8.3   1.8 0.00 0.00 43.8   2.1 81.4   0.6
Lytton East (Shop Hill Bottom) 4/18/24 1830 73.5   2.0 46   7 51.2   2.4 5.7   0.4 SSE | 156 9.0   0.5 0.00 0.00 43.6   1.6 82.2   2.4
Lytton East (Hill 5) 4/18/24 1830 73.0   1.8 46   7 51.2   2.7 5.9   1.3 SSE | 162 10.2   1.1 0.00 0.00 46.5   0.2 81.2   1.9
Lytton West Lower (Lew 6) 4/18/24 1830 74.5   1.2 46   6 52.4   3.0 4.3   1.7 S | 175 9.5   0.1 0.00 0.00 43.2   0.0 81.1   2.2
Lytton West Hill (23PS) 4/18/24 1830 74.2   1.5 45   6 51.4   2.4 4.4   1.1 SSE | 149 9.4   1.8 0.00 0.00 47.8   0.0 81.5   2.5
Lytton (River Oaks) 4/18/24 1830 74.0   1.9 44   5 51.0   1.6 5.7   1.4 SE | 145 10.0   2.9 0.00 0.00 43.9   2.7 82.3   1.6
Lytton (River Oaks Remote) 4/18/24 1830 73.9   2.3 45   3 51.1   0.0 - - - - - 43.4   1.6 83.8   2.0
Jimtown-North (Piccolo Ranch 15) 4/18/24 1830 74.6   2.1 41   5 49.6   1.2 2.8   1.0 SE | 130 6.8   2.0 0.00 0.00 45.6   0.0 82.2   0.8
Jimtown-NE (Red Fan) 4/18/24 1830 74.0   2.2 46   6 52.1   1.5 6.4   1.1 SE | 136 11.2   2.1 0.00 0.00 45.4   0.1 82.5   1.1
HWY 128/Chalk Hill Rd (Landslide) 4/18/24 1800 74.4   1.7 47   6 52.8   2.5 6.2   0.1 SSE | 157 11.4   1.2 0.00 0.00 43.2   0.5 81.6   0.1
N Chalk Hill Rd (Ranch 63) 4/18/24 1830 72.4   2.9 50   12 52.8   5.1 6.9   1.5 SSE | 163 11.8   3.2 0.00 0.00 44.1   0.8 80.6   0.5
Knights Valley (Bavarian Lion) 4/18/24 1830 73.1   2.5 45   5 50.4   1.0 2.3   0.9 WSW | 254 6.9   0.5 0.00 0.00 43.7   1.1 81.7   2.1
Bavarian Lion EFW 4/18/24 1830 73.1   2.3 - - - - - 0.00 0.00 44.0   1.9 81.9   2.6
Upper Dry Creek Valley 4/18/24 1830 75.6   0.9 36   6 47.1   4.9 5.5   0.2 WSW | 254 10.7   0.8 0.00 0.00 46.1   0.1 82.0   1.1
Lower Dry Creek Valley 4/18/24 1830 76.3   0.3 43   3 52.0   1.7 4.3   0.8 S | 178 9.6   0.8 0.00 0.00 45.0   1.5 81.4   1.4
Max     78.1 51 53.2 10.2 - 14.7 0.00 0.02 57.0 83.8
Avg     74.0 45 50.9 5.2 - 10.1 0.00 - - -
Min     66.2 36 47.1 2.3 - 6.8 0.00 0.00 43.2 74.6

Central Sonoma County Latest

32 Stations

15 Minute Data | America/Los_Angeles
as of 4/18/24 6:43 PM PDT
Station Date Time Temp (°F) RH (%) Dew Pt (°F) Wind Spd (mph) Wind Dir (°) Wind Gust (mph) Latest Rain (In) Daily Rain (In) Daily Min Temp (°F) Daily Max Temp (°F)
Healdsburg-South (Sodini) 4/18/24 1830 72.3   3.5 51   14 53.3   5.1 7.0   2.6 SE | 137 10.8   3.4 0.00 0.00 44.0   0.9 81.9   1.3
Windsor-East (Ranch 16) 4/18/24 1830 69.8   4.9 53   16 52.1   4.9 6.7   1.7 S | 171 9.8   2.2 0.00 0.00 43.0   0.6 79.6   0.9
Windsor-NW (Ranch 8) 4/18/24 1830 71.9   5.0 58   17 56.3   4.9 3.5   1.5 SE | 137 11.3   4.7 0.00 0.00 47.4   0.5 80.6   0.3
Mark West-North (Ranch 14) 4/18/24 1830 67.6   5.7 56   17 51.5   4.7 3.7   0.0 SE | 143 8.9   0.7 0.00 0.00 45.4   1.0 78.6   0.4
Windsor-SE (Silk Rd) 4/18/24 1815 70.6   5.3 57   21 54.5   7.9 5.4   1.2 SE | 126 10.2   2.7 0.00 0.00 44.1   0.5 78.5   0.7
Fulton-NW (Ranch 5) 4/18/24 1830 67.6   6.1 59   18 53.0   4.1 5.9   1.2 SE | 141 9.5   1.5 0.00 0.00 44.1   0.5 78.3   1.6
Windsor-South (Laughlin Rd) 4/18/24 1830 66.0   7.1 - - - - - 0.00 0.00 45.3   1.6 79.1   1.3
Fulton-SE (Barnes Rd) 4/18/24 1830 68.0   6.5 59   18 53.1   3.7 0.4   0.4 N | 0 6.7   6.7 0.00 0.00 -38.7   83.2 77.6   0.7
Fulton-SW (Ranch 21) 4/18/24 1830 65.2   7.6 - - 7.6   2.8 S | 185 11.8   4.8 0.00 0.00 43.6   0.4 78.3   1.2
Santa Rosa-NW (Goldfields) 4/18/24 1830 66.1   8.9 61   23 52.2   4.6 7.1   3.2 SSE | 159 11.5   4.1 0.00 0.00 44.8   0.6 78.4   0.3
Goldfields Remote 4/18/24 1815 67.0   7.2 - - - - - - - 65.9   7.9 79.1   3.6
NW Santa Rosa (Piner Road) 4/18/24 1830 64.3   7.8 69   22 53.9   3.1 4.7   0.8 SSW | 193 9.2   2.2 0.00 0.00 44.0   0.5 76.3   0.2
River Rd South (Denner Ranch) 4/18/24 1830 63.8   7.7 69   21 53.4   2.5 9.6   2.7 SE | 141 14.9   5.5 - - 44.1   0.2 76.2   0.4
West Santa Rosa (LOV Vineyard) 4/18/24 1830 65.4   8.0 65   23 53.4   4.7 2.3   0.4 SSE | 160 4.6   0.6 0.00 0.00 43.7   0.5 77.1   0.6
Guerneville Rd (Prokopakis) 4/18/24 1830 65.4   10.5 63   24 52.7   3.5 - - - 0.00 0.00 45.6   0.2 79.2   0.5
Guerneville Rd West (Balletto) 4/18/24 1830 64.3   8.4 69   25 53.8   4.3 5.0   0.5 S | 178 9.4   1.7 0.00 0.00 44.3   0.7 77.1   0.4
Guerneville Rd East (Rich Ranch) 4/18/24 1830 65.8   7.1 61   20 51.8   4.4 - - - - - 44.7   0.8 77.4   0.1
Sanchietti Ranch 4/18/24 1830 65.9   7.3 64   17 53.5   1.4 5.0   1.3 SSW | 208 9.4   3.1 0.00 0.00 44.9   1.4 77.4   0.3
Occidental Rd (Sebastopol) 4/18/24 1830 64.1   8.6 80   20 57.9   0.2 5.0   1.9 SSW | 202 9.0   2.4 0.00 0.00 43.3   1.5 76.9   0.8
Lower Westside Rd (Ranch 12) 4/18/24 1830 73.0   3.7 42   8 48.5   2.1 3.9   1.0 SW | 236 8.7   2.1 0.00 0.00 44.7   0.4 80.9   2.1
Guerneville (Laughlin Rd) 4/18/24 1830 65.2   2.9 59   2 50.4   1.9 5.2   4.3 SE | 139 8.5   6.0 0.00 0.00 44.2   1.9 79.5   2.0
Korbel (Winery) 4/18/24 1830 68.9   5.2 51   16 50.1   5.4 2.9   0.9 N | 354 6.6   0.6 0.00 0.00 46.3   0.8 79.4   1.0
Forestville (Shone Farms) 4/18/24 1830 72.4   4.1 41   7 47.6   1.1 2.9   0.6 SW | 214 9.1   2.3 0.00 0.00 45.0   0.2 81.3   1.2
Forestville-NE (Ranch 30) 4/18/24 1830 70.3   4.8 48   7 50.0   0.4 5.8   0.8 SW | 219 9.8   1.0 0.00 0.00 44.6   1.3 80.2   1.7
Green Valley Vineyard 4/18/24 1830 69.1   5.6 46   6 47.6   1.4 5.5   2.7 WSW | 246 11.0   5.7 0.00 0.00 44.8   0.4 76.2   0.3
Green Valley (Sanchietti) 4/18/24 1830 71.3   5.2 - - - - - - - 43.1   0.9 79.8   1.1
Graton-West (Dutton Ranch) 4/18/24 1830 67.5   7.0 58   21 52.0   5.5 3.5   0.5 S | 174 7.6   2.5 0.00 0.00 44.8   0.6 79.3   1.8
Graton-South (Mill Station Rd) 4/18/24 1830 62.0   9.6 69   24 51.8   2.6 2.6   1.8 SW | 224 6.1   2.1 0.00 0.00 41.6   0.9 75.0   0.1
Occidental (Horseshoe Bend) 4/18/24 1830 61.1   6.7 70   13 51.1   0.8 - - - 0.00 0.00 49.3   0.1 72.5   1.2
Sexton Valley (Jacqueline's Blk) 4/18/24 1830 62.2   7.7 72   15 53.0   0.8 1.9   0.1 WSW | 243 5.1   0.7 0.00 0.00 42.3   0.1 74.8   0.3
Sebastopol Hills (Burnside Rd) 4/18/24 1830 58.7   9.4 79   23 52.2   0.6 7.1   2.4 SW | 231 12.8   5.6 0.00 0.00 48.3   0.5 71.0   1.1
Seaview/Fort Ross (Hirsch) 4/18/24 1830 65.1   6.5 50   15 45.8   3.3 1.5   1.3 WNW | 294 3.8   2.1 0.00 0.00 56.4   6.1 69.0   3.3
Max     73.0 80 57.9 9.6 - 14.9 0.00 0.00 65.9 81.9
Avg     66.8 60 52.0 4.7 - 9.1 0.00 - - -
Min     58.7 41 45.8 0.4 - 3.8 0.00 0.00 -38.7 69.0

Southern Sonoma County Latest

18 Stations

15 Minute Data | America/Los_Angeles
as of 4/18/24 6:43 PM PDT
Station Date Time Temp (°F) RH (%) Dew Pt (°F) Wind Spd (mph) Wind Dir (°) Wind Gust (mph) Latest Rain (In) Daily Rain (In) Daily Min Temp (°F) Daily Max Temp (°F)
Upper Rincon Valley 4/18/24 1830 64.1   5.3 60   11 49.8   0.6 2.6   0.6 SSE | 166 6.4   1.0 0.00 0.00 52.8   1.6 75.2   1.1
Lower Bennett Valley 4/18/24 1830 65.4   5.7 60   9 51.3   1.0 4.2   0.4 ESE | 123 7.4   0.2 0.00 0.00 41.3   0.8 76.9   1.0
Kenwood (Wildwood) 4/18/24 1830 67.2   4.0 56   6 51.0   0.9 4.3   0.1 NNW | 333 7.2   3.2 0.00 0.00 45.3   1.0 79.1   2.6
Sonoma Valley (Bedrock) 4/18/24 1830 69.6   3.7 - 51.4   2.4 4.7   0.9 N | 11 9.1   3.0 0.00 0.00 44.4   2.3 76.8   2.0
Sonoma-West (Arnold) 4/18/24 1830 72.7   1.3 54   0 54.9   1.1 2.4   0.2 S | 189 5.2   0.7 0.00 0.00 43.7   1.4 79.1   1.3
Sonoma Valley HS 4/18/24 1830 71.0   2.2 63   7 57.8   1.0 3.0   0.0 SSE | 166 5.3   1.5 0.00 0.00 46.6   1.2 77.6   0.8
Sonoma East (Bundschu01) 4/18/24 1830 67.6   6.9 64   14 55.2   0.2 6.0   2.2 SE | 140 10.5   3.1 0.00 0.00 44.0   1.4 77.1   0.2
Schellville (Sasaki) 4/18/24 1830 68.0   4.5 63   11 54.9   1.1 3.9   2.3 ENE | 63 10.8   0.3 0.00 0.00 44.7   1.4 78.3   0.4
Sonoma-SE (Napoli) 4/18/24 1830 68.7   6.8 60   12 54.2   0.3 5.0   2.0 S | 170 7.4   2.0 0.00 0.00 45.4   1.2 78.5   0.3
Ricci Vineyards (Carneros) 4/18/24 1830 66.2   6.6 59   7 51.6   2.7 5.7   0.9 S | 180 9.1   0.6 0.00 0.00 45.7   0.2 77.6   0.5
Carneros (Ranch 71) 4/18/24 1830 64.6   7.3 62   6 51.2   3.9 4.3   1.2 S | 182 6.7   1.9 0.00 0.00 51.6   1.8 75.9   0.9
Carneros Upper (Ranch 81) 4/18/24 1830 66.2   6.7 57   5 50.6   3.7 7.1   1.0 SSW | 193 10.6   0.4 - - 51.4   0.2 78.5   0.8
Carneros Lower (Ranch 81) 4/18/24 1830 64.1   7.4 66   5 52.4   4.6 3.8   3.7 S | 182 7.5   5.5 0.00 0.00 46.6   0.7 76.5   2.0
Rohnert Park-West (Stony Point) 4/18/24 1830 61.6   6.4 76   14 53.9   0.5 3.1   0.3 SW | 220 7.7   1.7 0.00 0.00 42.0   0.0 74.5   0.1
Rice-Spivak Vineyard 4/18/24 1830 61.1   6.0 - - - - - - - 36.9   0.1 76.4   0.1
Penngrove (Asellus) 4/18/24 1830 63.2   5.7 62   15 50.2   2.1 2.0   1.1 NW | 322 3.7   0.8 0.00 0.00 42.2   0.8 76.9   0.7
Roger's Creek (Ranch 50) 4/18/24 1830 64.2   4.8 65   13 52.2   1.5 8.3   1.6 W | 276 13.5   2.8 0.00 0.00 49.7   0.4 75.7   1.5
Petaluma (Ranch 10) 4/18/24 1830 64.4   6.8 61   12 50.9   0.2 6.4   1.7 NW | 321 10.1   1.9 0.00 0.00 42.4   1.0 80.8   1.8
Max     72.7 76 57.8 8.3 - 13.5 0.00 0.00 52.8 80.8
Avg     66.1 62 52.6 4.5 - 8.1 0.00 - - -
Min     61.1 54 49.8 2.0 - 3.7 0.00 0.00 36.9 74.5

Latest Observations

Map

Hourly Data